Time;durP1;ratioP1;P1;durP2;ratioP2;P2;SDS_P1;SDS_P2;PMS_P1;PMS_P2;Temp;Humidity;BMP_temperature;BMP_pressure;BME280_temperature;BME280_humidity;BME280_pressure;Samples;Min_cycle;Max_cycle;Signal;HPM_P1;HPM_P2
2022/08/12 00:44:52;;;;;;;;;;;;;;;26.98;50.16;101233.16;5051411;28;20015;-81
2022/08/12 00:47:18;;;;;;;;;;;;;;;26.98;50.16;101233.16;5028033;28;19955;-82
2022/08/12 00:49:44;;;;;;;;;;;;;;;26.96;50.08;101234.94;5032959;28;19912;-82
2022/08/12 00:52:10;;;;;;;;;;;;;;;26.98;49.98;101240.31;5027567;28;19913;-82
2022/08/12 00:54:37;;;;;;;;;;;;;;;27.00;50.11;101241.19;5049380;28;19913;-82
2022/08/12 00:57:04;;;;;;;;;;;;;;;26.98;50.25;101243.88;5031782;28;20397;-83
2022/08/12 00:59:30;;;;;;;;;;;;;;;26.98;50.38;101238.50;5048033;28;19917;-82
2022/08/12 01:01:56;;;;;;;;;;;;;;;26.97;50.07;101241.22;5029929;28;19986;-82
2022/08/12 01:12:34;;;;;;;;;;;;;;;26.96;50.11;101243.00;5050852;28;19985;-81
2022/08/12 01:15:00;;;;;;;;;;;;;;;26.94;49.93;101254.63;5044801;28;20469;-81
2022/08/12 01:17:25;;;;;;;;;;;;;;;26.94;50.11;101249.28;5032322;28;19966;-80
2022/08/12 01:19:51;;;;;;;;;;;;;;;26.96;50.12;101253.72;5044016;28;20280;-82
2022/08/12 01:22:24;;;;;;;;;;;;;;;26.96;50.00;101247.47;5031499;28;20054;-82
2022/08/12 01:25:08;;;;;;;;;;;;;;;26.94;50.25;101233.19;5046855;28;20425;-82
2022/08/12 01:27:34;;;;;;;;;;;;;;;26.94;50.13;101242.13;5039221;28;19913;-81
2022/08/12 01:30:04;;;;;;;;;;;;;;;26.97;49.92;101242.13;5047700;28;19920;-81
2022/08/12 01:32:30;;;;;;;;;;;;;;;26.96;50.13;101244.78;5039646;28;20420;-82
2022/08/12 01:35:09;;;;;;;;;;;;;;;26.95;49.94;101240.34;5016963;28;19956;-82
2022/08/12 01:37:36;;;;;;;;;;;;;;;26.93;50.20;101240.34;5021985;28;20302;-81
2022/08/12 01:40:04;;;;;;;;;;;;;;;26.94;50.21;101242.13;5048345;28;20445;-82
2022/08/12 01:42:43;;;;;;;;;;;;;;;26.93;50.26;101243.03;5041136;28;19920;-83
2022/08/12 01:45:11;;;;;;;;;;;;;;;26.92;50.22;101238.56;5033537;28;20074;-82
2022/08/12 01:47:41;;;;;;;;;;;;;;;26.91;50.04;101234.09;5037219;28;19917;-82
2022/08/12 01:50:19;;;;;;;;;;;;;;;26.91;50.37;101230.53;5041823;28;19924;-82
2022/08/12 01:52:54;;;;;;;;;;;;;;;26.94;50.18;101226.03;5042997;28;19996;-83
2022/08/12 01:55:24;;;;;;;;;;;;;;;26.92;49.94;101224.28;5029089;28;19920;-82
2022/08/12 01:57:53;;;;;;;;;;;;;;;26.92;50.05;101226.94;5040518;28;19924;-82
2022/08/12 02:00:19;;;;;;;;;;;;;;;26.91;50.33;101227.88;5048928;28;20003;-82
2022/08/12 02:02:45;;;;;;;;;;;;;;;26.89;49.99;101229.66;5050607;28;20004;-83
2022/08/12 02:11:17;;;;;;;;;;;;;;;26.91;49.83;101233.22;5044943;28;19967;-82
2022/08/12 02:13:46;;;;;;;;;;;;;;;26.89;50.00;101227.88;5047492;28;19951;-82
2022/08/12 02:16:44;;;;;;;;;;;;;;;26.91;50.18;101226.06;5044201;28;20516;-82
2022/08/12 02:19:19;;;;;;;;;;;;;;;26.89;49.95;101227.88;5016025;28;19979;-82
2022/08/12 02:21:58;;;;;;;;;;;;;;;26.87;49.83;101218.06;5054498;28;20394;-82
2022/08/12 02:24:23;;;;;;;;;;;;;;;26.86;49.69;101219.84;5033629;28;19913;-82
2022/08/12 02:26:50;;;;;;;;;;;;;;;26.85;50.10;101222.53;5050588;28;19924;-81
2022/08/12 02:29:17;;;;;;;;;;;;;;;26.85;49.82;101212.69;5054355;28;19917;-81
2022/08/12 02:31:44;;;;;;;;;;;;;;;26.83;49.80;101216.28;5029452;28;20556;-81
2022/08/12 02:34:11;;;;;;;;;;;;;;;26.85;49.68;101215.38;5058950;28;19921;-81
2022/08/12 02:36:36;;;;;;;;;;;;;;;26.84;49.79;101212.69;5026301;28;20520;-81
2022/08/12 02:39:02;;;;;;;;;;;;;;;26.84;49.96;101210.03;5050322;28;19963;-81
2022/08/12 02:41:28;;;;;;;;;;;;;;;26.82;49.89;101207.38;5053474;28;20385;-81
2022/08/12 02:43:54;;;;;;;;;;;;;;;26.80;49.82;101209.16;5047917;28;19925;-81
2022/08/12 02:46:23;;;;;;;;;;;;;;;26.80;49.68;101215.41;5029972;28;19917;-82
2022/08/12 02:49:19;;;;;;;;;;;;;;;26.82;49.96;101210.06;5044398;28;20011;-80
2022/08/12 02:51:44;;;;;;;;;;;;;;;26.79;50.05;101216.28;5015351;28;19924;-82
2022/08/12 02:54:09;;;;;;;;;;;;;;;26.80;49.64;101209.16;5047786;28;19913;-81
2022/08/12 02:56:36;;;;;;;;;;;;;;;26.79;49.74;101200.22;5046872;28;19924;-79
2022/08/12 02:59:01;;;;;;;;;;;;;;;26.80;49.93;101215.41;5039409;28;20321;-82
2022/08/12 03:01:34;;;;;;;;;;;;;;;26.75;49.95;101216.31;5053470;28;19979;-82
2022/08/12 03:04:02;;;;;;;;;;;;;;;26.77;49.80;101212.75;5040466;28;20452;-82
2022/08/12 03:06:31;;;;;;;;;;;;;;;26.80;49.68;101215.41;5066609;28;19927;-82
2022/08/12 03:08:57;;;;;;;;;;;;;;;26.82;49.71;101218.09;5041981;28;20026;-82
2022/08/12 03:11:39;;;;;;;;;;;;;;;26.80;49.99;101215.41;5031717;28;19921;-82
2022/08/12 03:14:05;;;;;;;;;;;;;;;26.80;50.04;101219.88;5045193;28;19917;-82
2022/08/12 03:16:31;;;;;;;;;;;;;;;26.79;50.01;101218.97;5044685;28;19952;-81
2022/08/12 03:18:56;;;;;;;;;;;;;;;26.78;49.95;101217.22;5056411;28;20412;-82
2022/08/12 03:21:24;;;;;;;;;;;;;;;26.79;49.82;101220.78;5045377;28;20003;-82
2022/08/12 03:23:51;;;;;;;;;;;;;;;26.79;50.23;101220.78;5032030;28;20401;-81
2022/08/12 03:26:18;;;;;;;;;;;;;;;26.78;49.84;101219.88;5034552;28;19925;-82
2022/08/12 03:28:49;;;;;;;;;;;;;;;26.77;50.21;101207.38;5049456;28;19917;-81
2022/08/12 03:31:38;;;;;;;;;;;;;;;26.75;50.12;101214.53;5045125;28;19924;-81
2022/08/12 03:34:08;;;;;;;;;;;;;;;26.74;50.41;101211.88;5028770;28;20378;-81
2022/08/12 03:36:34;;;;;;;;;;;;;;;26.77;50.21;101214.53;5043072;28;20462;-81
2022/08/12 03:41:54;;;;;;;;;;;;;;;26.73;50.10;101210.09;5045990;28;19921;-82
2022/08/12 04:01:05;;;;;;;;;;;;;;;26.72;50.30;101219.94;5050912;28;19927;-82
2022/08/12 04:06:15;;;;;;;;;;;;;;;26.72;50.17;101222.59;5059173;28;19938;-81
2022/08/12 04:08:40;;;;;;;;;;;;;;;26.72;50.43;101227.97;5052798;28;19917;-82
2022/08/12 04:13:50;;;;;;;;;;;;;;;26.68;50.58;101225.31;5047545;28;20316;-81
2022/08/12 04:16:15;;;;;;;;;;;;;;;26.71;50.31;101222.59;5049082;28;19916;-82
2022/08/12 04:18:41;;;;;;;;;;;;;;;26.70;50.43;101224.41;5036432;28;19924;-82
2022/08/12 04:21:09;;;;;;;;;;;;;;;26.69;50.35;101224.41;5042258;28;19920;-83
2022/08/12 04:23:37;;;;;;;;;;;;;;;26.69;50.26;101235.13;5020180;28;19917;-81
2022/08/12 04:26:03;;;;;;;;;;;;;;;26.71;50.26;101230.63;5033602;28;20003;-82
2022/08/12 04:28:28;;;;;;;;;;;;;;;26.62;50.40;101231.59;5008472;28;20349;-81
2022/08/12 04:30:56;;;;;;;;;;;;;;;26.60;50.58;101228.91;5053113;28;20070;-82
2022/08/12 04:33:21;;;;;;;;;;;;;;;26.64;50.37;101235.16;5036228;28;20012;-81
2022/08/12 04:35:47;;;;;;;;;;;;;;;26.63;50.40;101228.03;5024149;28;20058;-82
2022/08/12 04:38:13;;;;;;;;;;;;;;;26.65;50.55;101223.53;5016627;28;19921;-82
2022/08/12 04:40:38;;;;;;;;;;;;;;;26.64;50.46;101231.59;5052074;28;19928;-81
2022/08/12 04:43:04;;;;;;;;;;;;;;;26.56;50.75;101229.84;5028711;28;19917;-81
2022/08/12 04:45:30;;;;;;;;;;;;;;;26.60;50.91;101230.69;5047947;28;19916;-81
2022/08/12 04:47:55;;;;;;;;;;;;;;;26.64;50.44;101232.47;5035004;28;20010;-78
2022/08/12 04:50:21;;;;;;;;;;;;;;;26.65;50.58;101223.53;5049118;28;19925;-80
2022/08/12 04:52:48;;;;;;;;;;;;;;;26.62;50.83;101220.88;5045933;28;19999;-79
2022/08/12 04:55:13;;;;;;;;;;;;;;;26.64;50.80;101224.44;5034289;28;20352;-81
2022/08/12 04:57:39;;;;;;;;;;;;;;;26.60;50.52;101220.88;5029573;28;19917;-81
2022/08/12 05:00:08;;;;;;;;;;;;;;;26.60;50.74;101218.19;5045223;28;20016;-82
2022/08/12 05:02:34;;;;;;;;;;;;;;;26.63;50.75;101222.66;5048163;28;19921;-82
2022/08/12 05:04:59;;;;;;;;;;;;;;;26.63;51.02;101221.75;5049667;28;19967;-81
2022/08/12 05:07:26;;;;;;;;;;;;;;;26.63;50.78;101224.44;5039145;28;20301;-81
2022/08/12 05:09:51;;;;;;;;;;;;;;;26.61;50.79;101224.47;5054547;28;20358;-81
2022/08/12 05:12:18;;;;;;;;;;;;;;;26.62;51.19;101223.53;5047102;28;19963;-80
2022/08/12 05:14:44;;;;;;;;;;;;;;;26.62;51.02;101222.66;5032246;28;19917;-81
2022/08/12 05:17:09;;;;;;;;;;;;;;;26.64;51.36;101223.53;5048065;28;19951;-81
2022/08/12 05:19:41;;;;;;;;;;;;;;;26.60;51.41;101223.53;5039995;28;19921;-82
2022/08/12 05:22:07;;;;;;;;;;;;;;;26.62;51.11;101228.91;5037569;28;20390;-80
2022/08/12 05:24:32;;;;;;;;;;;;;;;26.62;50.97;101223.53;5043408;28;19924;-81
2022/08/12 05:26:59;;;;;;;;;;;;;;;26.63;51.29;101214.63;5044957;28;19917;-80
2022/08/12 05:29:24;;;;;;;;;;;;;;;26.59;51.29;101213.75;5045092;28;20383;-83
2022/08/12 05:31:54;;;;;;;;;;;;;;;26.57;51.52;101212.84;5044370;28;19913;-81
2022/08/12 05:34:20;;;;;;;;;;;;;;;26.53;51.63;101212.84;5044590;28;19919;-82
2022/08/12 05:36:45;;;;;;;;;;;;;;;26.60;51.26;101218.19;5031450;28;19916;-81
2022/08/12 05:39:11;;;;;;;;;;;;;;;26.60;51.43;101230.69;5031865;28;20023;-81
2022/08/12 05:41:36;;;;;;;;;;;;;;;26.52;51.55;101225.38;5050566;28;19912;-81
2022/08/12 05:44:05;;;;;;;;;;;;;;;26.51;51.94;101226.25;5050331;28;19928;-82
2022/08/12 05:46:31;;;;;;;;;;;;;;;26.54;51.40;101228.00;5045848;28;19990;-82
2022/08/12 05:48:59;;;;;;;;;;;;;;;26.59;51.76;101223.56;5046372;28;20528;-82
2022/08/12 05:51:26;;;;;;;;;;;;;;;26.57;51.48;101226.25;5049229;28;19912;-85
2022/08/12 05:53:58;;;;;;;;;;;;;;;26.55;51.83;101221.78;5029990;28;19913;-83
2022/08/12 05:56:26;;;;;;;;;;;;;;;26.57;51.93;101222.69;5033670;28;20378;-81
2022/08/12 06:02:02;;;;;;;;;;;;;;;26.57;51.58;101228.94;5030444;28;19970;-83
2022/08/12 06:04:29;;;;;;;;;;;;;;;26.50;52.00;101219.13;5056980;28;19925;-82
2022/08/12 06:06:54;;;;;;;;;;;;;;;26.49;52.28;101216.44;5056986;28;19956;-83
2022/08/12 06:09:21;;;;;;;;;;;;;;;26.39;52.42;101218.25;5031328;28;19912;-84
2022/08/12 06:11:47;;;;;;;;;;;;;;;26.49;52.37;101216.44;5045696;28;19913;-83
2022/08/12 06:14:12;;;;;;;;;;;;;;;26.52;52.61;101236.06;5037761;28;20421;-82
2022/08/12 06:16:42;;;;;;;;;;;;;;;26.56;52.54;101229.84;5059846;28;20442;-82
2022/08/12 06:19:09;;;;;;;;;;;;;;;26.49;52.87;101230.72;5050547;28;19932;-84
2022/08/12 06:21:36;;;;;;;;;;;;;;;26.36;53.92;101229.00;5046377;28;19917;-82
2022/08/12 06:24:02;;;;;;;;;;;;;;;26.46;53.18;101235.19;5050329;28;19912;-82
2022/08/12 06:26:28;;;;;;;;;;;;;;;26.49;53.43;101232.50;5037321;28;19920;-81
2022/08/12 06:28:59;;;;;;;;;;;;;;;26.50;53.83;101228.91;5053318;28;19913;-81
2022/08/12 06:31:25;;;;;;;;;;;;;;;26.51;53.96;101226.25;5047136;28;19913;-83
2022/08/12 06:33:50;;;;;;;;;;;;;;;26.45;53.86;101230.75;5030714;28;19920;-82
2022/08/12 06:36:17;;;;;;;;;;;;;;;26.51;53.72;101226.25;5031180;28;19912;-81
2022/08/12 06:38:43;;;;;;;;;;;;;;;26.52;53.94;101233.41;5045889;28;19921;-81
2022/08/12 06:44:07;;;;;;;;;;;;;;;26.54;53.66;101223.56;5039529;28;19920;-82
2022/08/12 06:46:35;;;;;;;;;;;;;;;26.46;53.77;101232.50;5019453;28;20043;-84
2022/08/12 06:49:01;;;;;;;;;;;;;;;26.41;54.37;101232.53;5039228;28;19917;-81
2022/08/12 06:51:30;;;;;;;;;;;;;;;26.47;53.93;101231.63;5053011;28;19924;-82
2022/08/12 06:53:57;;;;;;;;;;;;;;;26.49;54.24;101233.41;5022511;28;19936;-81
2022/08/12 06:56:22;;;;;;;;;;;;;;;26.45;53.98;101230.75;5049636;28;19913;-81
2022/08/12 06:58:48;;;;;;;;;;;;;;;26.46;54.27;101235.19;5050725;28;20428;-81
2022/08/12 07:01:32;;;;;;;;;;;;;;;26.47;54.42;101228.94;5054140;28;20429;-82
2022/08/12 07:03:58;;;;;;;;;;;;;;;26.47;54.16;101226.28;5052206;28;19920;-81
2022/08/12 07:06:24;;;;;;;;;;;;;;;26.43;54.49;101233.41;5053586;28;20322;-83
2022/08/12 07:08:49;;;;;;;;;;;;;;;26.38;54.26;101232.56;5053553;28;19952;-81
2022/08/12 07:11:15;;;;;;;;;;;;;;;26.33;53.97;101242.38;5051120;28;19917;-82
2022/08/12 07:13:44;;;;;;;;;;;;;;;26.30;54.52;101237.94;5046549;28;20412;-82
2022/08/12 07:16:12;;;;;;;;;;;;;;;26.33;54.34;101235.25;5042903;28;19915;-82
2022/08/12 07:18:38;;;;;;;;;;;;;;;26.37;54.18;101234.34;5021588;28;20019;-82
2022/08/12 07:21:04;;;;;;;;;;;;;;;26.36;54.46;101245.06;5033519;28;19947;-82
2022/08/12 07:23:32;;;;;;;;;;;;;;;26.35;54.50;101238.81;5041566;28;19913;-82
2022/08/12 07:25:57;;;;;;;;;;;;;;;26.36;54.82;101239.72;5036207;28;20447;-80
2022/08/12 07:28:26;;;;;;;;;;;;;;;26.39;54.00;101253.06;5046842;28;19920;-81
2022/08/12 07:30:52;;;;;;;;;;;;;;;26.25;54.31;101234.41;5046440;28;19912;-82
2022/08/12 07:33:21;;;;;;;;;;;;;;;26.27;54.53;101240.63;5024356;28;19924;-82
2022/08/12 07:35:48;;;;;;;;;;;;;;;26.33;54.05;101245.06;5031267;28;20378;-81
2022/08/12 07:38:23;;;;;;;;;;;;;;;26.24;54.54;101242.41;5031937;28;20015;-81
2022/08/12 07:40:49;;;;;;;;;;;;;;;26.27;54.31;101242.41;5048232;28;19963;-82
2022/08/12 07:43:15;;;;;;;;;;;;;;;26.29;54.51;101243.28;5043696;28;19935;-82
2022/08/12 07:45:40;;;;;;;;;;;;;;;26.32;54.46;101241.50;5041519;28;20302;-81
2022/08/12 07:48:06;;;;;;;;;;;;;;;26.35;54.12;101243.25;5044871;28;19912;-83
2022/08/12 07:50:31;;;;;;;;;;;;;;;26.34;54.26;101236.16;5068678;28;19966;-82
2022/08/12 07:52:58;;;;;;;;;;;;;;;26.35;54.12;101237.91;5046633;28;20007;-83
2022/08/12 07:55:24;;;;;;;;;;;;;;;26.38;54.00;101243.28;5042873;28;19917;-84
2022/08/12 07:57:58;;;;;;;;;;;;;;;26.38;54.23;101236.13;5042217;28;19912;-83
2022/08/12 08:00:27;;;;;;;;;;;;;;;26.38;54.24;101243.28;5034411;28;19928;-83
2022/08/12 08:02:53;;;;;;;;;;;;;;;26.46;53.75;101238.78;5052111;28;20003;-82
2022/08/12 08:05:19;;;;;;;;;;;;;;;26.47;53.76;101235.19;5015517;28;19952;-82
2022/08/12 08:07:45;;;;;;;;;;;;;;;26.35;54.03;101237.91;5031321;28;19920;-82
2022/08/12 08:10:12;;;;;;;;;;;;;;;26.39;54.10;101229.88;5052342;28;19912;-82
2022/08/12 08:13:03;;;;;;;;;;;;;;;;;;;;;
2022/08/12 08:15:29;;;;;;;;;;;;;;;26.33;54.16;101227.22;5042790;28;19923;-81
2022/08/12 08:18:01;;;;;;;;;;;;;;;26.37;54.25;101228.09;5024810;28;19950;-81
2022/08/12 08:20:32;;;;;;;;;;;;;;;26.34;54.16;101228.09;5034385;28;20365;-81
2022/08/12 08:22:59;;;;;;;;;;;;;;;26.34;54.34;101217.41;5046228;28;19917;-81
2022/08/12 08:25:30;;;;;;;;;;;;;;;26.41;53.90;101216.47;5031532;28;19912;-81
2022/08/12 08:27:56;;;;;;;;;;;;;;;26.45;54.14;101220.03;5033017;28;19966;-81
2022/08/12 08:30:22;;;;;;;;;;;;;;;26.48;54.02;101214.66;5033756;28;19913;-81
2022/08/12 08:32:48;;;;;;;;;;;;;;;26.48;53.95;101214.66;5031089;28;19944;-81
2022/08/12 08:35:13;;;;;;;;;;;;;;;26.37;54.14;101214.69;5031576;28;20362;-80
2022/08/12 08:37:39;;;;;;;;;;;;;;;26.45;54.27;101212.88;5048988;28;19951;-80
2022/08/12 08:42:51;;;;;;;;;;;;;;;26.66;53.99;101203.00;5033975;28;20313;-81
2022/08/12 08:45:17;;;;;;;;;;;;;;;26.63;54.03;101211.03;5045842;28;19913;-80
2022/08/12 08:47:45;;;;;;;;;;;;;;;26.62;54.35;101204.78;5031410;28;19920;-80
2022/08/12 08:50:13;;;;;;;;;;;;;;;26.75;53.50;101202.94;5014701;28;19913;-80
2022/08/12 08:52:39;;;;;;;;;;;;;;;26.66;53.60;101200.31;5049287;28;19924;-81
2022/08/12 08:55:05;;;;;;;;;;;;;;;26.57;53.75;101206.63;5048758;28;19912;-81
2022/08/12 08:57:30;;;;;;;;;;;;;;;26.54;53.93;101193.19;5047690;28;19978;-82
2022/08/12 08:59:59;;;;;;;;;;;;;;;26.59;54.00;101189.63;5045228;28;19960;-80
2022/08/12 09:02:24;;;;;;;;;;;;;;;26.66;53.82;101189.59;5034112;28;19920;-80
2022/08/12 09:04:50;;;;;;;;;;;;;;;26.69;53.97;101194.94;5067444;28;19913;-81
2022/08/12 09:07:17;;;;;;;;;;;;;;;26.62;53.92;101194.06;5050609;28;19913;-79
2022/08/12 09:09:42;;;;;;;;;;;;;;;26.69;53.56;101200.28;5045261;28;20387;-81
2022/08/12 09:14:53;;;;;;;;;;;;;;;26.73;53.78;101197.59;5044527;28;19989;-81
2022/08/12 09:17:21;;;;;;;;;;;;;;;26.66;53.79;101193.16;5036699;28;20290;-80
2022/08/12 09:19:49;;;;;;;;;;;;;;;26.60;54.06;101191.41;5033680;28;19977;-81
2022/08/12 09:22:15;;;;;;;;;;;;;;;26.58;54.22;101195.00;5054947;28;19939;-80
2022/08/12 09:24:40;;;;;;;;;;;;;;;26.68;54.31;101193.16;5053980;28;20006;-80
2022/08/12 09:27:07;;;;;;;;;;;;;;;26.77;53.94;101198.47;5031903;28;20055;-81
2022/08/12 09:29:32;;;;;;;;;;;;;;;26.73;54.11;101197.59;5049290;28;20011;-81
2022/08/12 09:31:59;;;;;;;;;;;;;;;26.73;54.21;101194.94;5029692;28;20351;-80
2022/08/12 09:34:28;;;;;;;;;;;;;;;26.74;54.27;101188.66;5030075;28;19955;-80
2022/08/12 09:36:55;;;;;;;;;;;;;;;26.73;54.63;101188.66;5045692;28;19928;-80
2022/08/12 09:39:20;;;;;;;;;;;;;;;26.80;54.81;101193.97;5026050;28;19921;-81
2022/08/12 09:45:19;;;;;;;;;;;;;;;26.76;54.44;101200.25;5029700;28;19921;-81
2022/08/12 09:47:15;;;;;;;;;;;;;;;26.79;54.56;101191.28;5048156;28;19920;-82
2022/08/12 09:49:41;;;;;;;;;;;;;;;26.81;54.54;101187.69;5029528;28;19913;-82
2022/08/12 09:52:15;;;;;;;;;;;;;;;26.78;54.65;101186.84;5016358;28;19916;-82
2022/08/12 09:54:44;;;;;;;;;;;;;;;26.78;54.77;101187.75;5018979;28;20015;-81
2022/08/12 09:57:18;;;;;;;;;;;;;;;26.72;54.74;101181.53;5027912;28;19916;-81
2022/08/12 09:59:44;;;;;;;;;;;;;;;26.78;55.02;101182.38;5032969;28;19923;-82
2022/08/12 10:02:11;;;;;;;;;;;;;;;26.81;54.75;101179.66;5051391;28;19917;-81
2022/08/12 10:04:41;;;;;;;;;;;;;;;26.83;54.99;101182.34;5038846;28;19912;-82
2022/08/12 10:07:06;;;;;;;;;;;;;;;26.82;55.16;101180.56;5020293;28;20023;-80
2022/08/12 10:09:32;;;;;;;;;;;;;;;26.77;54.99;101174.34;5044346;28;19952;-81
2022/08/12 10:14:43;;;;;;;;;;;;;;;26.77;55.35;101175.22;5045495;28;19974;-81
2022/08/12 10:17:08;;;;;;;;;;;;;;;26.80;55.31;101169.84;5043714;28;19928;-81
2022/08/12 10:19:36;;;;;;;;;;;;;;;26.82;55.54;101164.50;5020663;28;20007;-81
2022/08/12 10:22:02;;;;;;;;;;;;;;;26.75;54.99;101166.31;5041372;28;19924;-81
2022/08/12 10:24:27;;;;;;;;;;;;;;;26.78;55.02;101165.41;5045798;28;19913;-81
2022/08/12 10:30:26;;;;;;;16.53;12.27;;;;;;;26.82;57.45;101153.78;5099933;27;20425;-84
2022/08/12 10:32:58;;;;;;;13.13;11.57;;;;;;;26.84;56.85;101168.06;5087177;28;20637;-81
2022/08/12 10:35:30;;;;;;;16.33;11.55;;;;;;;26.76;56.29;101161.84;5089989;28;20039;-83
2022/08/12 10:38:01;;;;;;;14.48;11.70;;;;;;;26.56;56.83;101135.16;5088164;28;20517;-81
2022/08/12 10:40:29;;;;;;;12.60;10.73;;;;;;;26.64;56.95;101160.13;5087860;28;20028;-81
2022/08/12 10:45:41;;;;;;;13.00;11.23;;;;;;;26.71;56.33;101163.66;5080343;28;20563;-81
2022/08/12 10:48:06;;;;;;;14.27;11.02;;;;;;;26.44;56.21;101120.06;5115895;28;20085;-81
2022/08/12 10:50:40;;;;;;;;;;;;;;;26.79;56.09;101167.19;5090753;28;20020;-81
2022/08/12 10:53:08;;;;;;;12.95;11.10;;;;;;;26.72;56.01;101160.09;5086626;28;19919;-80
2022/08/12 10:55:33;;;;;;;13.48;10.65;;;;;;;26.66;55.84;101152.09;5086235;28;20082;-80
2022/08/12 10:58:00;;;;;;;;;;;;;;;26.79;55.96;101159.16;5089764;28;20024;-80
2022/08/12 11:00:25;;;;;;;14.85;10.73;;;;;;;26.63;56.22;101128.91;5088747;28;19970;-80
2022/08/12 11:02:55;;;;;;;;;;;;;;;26.75;55.83;101150.22;5088236;28;20024;-81
2022/08/12 11:05:20;;;;;;;11.70;10.48;;;;;;;26.75;55.53;101158.25;5087039;28;19912;-80
2022/08/12 11:07:49;;;;;;;;;;;;;;;26.78;55.53;101152.03;5088146;28;20090;-79
2022/08/12 11:10:15;;;;;;;12.48;10.05;;;;;;;26.76;55.81;101145.78;5089330;28;19969;-80
2022/08/12 11:12:46;;;;;;;11.82;10.63;;;;;;;26.76;55.61;101148.47;5086678;28;21937;-80
2022/08/12 11:15:12;;;;;;;11.82;10.60;;;;;;;26.69;55.49;101130.63;5086526;28;20481;-81
2022/08/12 11:17:39;;;;;;;;;;;;;;;26.75;55.33;101147.53;5088342;28;20486;-81
2022/08/12 11:20:05;;;;;;;14.20;10.85;;;;;;;26.67;55.05;101137.78;5087495;28;19912;-80
2022/08/12 11:22:31;;;;;;;13.05;10.60;;;;;;;26.75;55.18;101147.53;5088428;28;20037;-80
2022/08/12 11:24:57;;;;;;;;;;;;;;;26.72;54.76;101144.03;5088533;28;20036;-81
2022/08/12 11:27:22;;;;;;;13.82;10.20;;;;;;;26.56;55.00;101120.03;5089678;28;19917;-82
2022/08/12 11:29:48;;;;;;;;;;;;;;;26.78;55.13;101155.59;5092783;28;20052;-81
2022/08/12 11:32:13;;;;;;;11.77;9.95;;;;;;;26.68;55.03;101132.41;5091500;28;20009;-82
2022/08/12 11:34:43;;;;;;;;;;;;;;;26.80;54.53;101145.75;5094163;28;20165;-82
2022/08/12 11:37:09;;;;;;;11.75;9.77;;;;;;;26.46;54.29;101086.13;5093403;28;19921;-80
2022/08/12 11:39:35;;;;;;;;;;;;;;;26.81;54.44;101143.94;5082368;28;20023;-80
2022/08/12 11:42:01;;;;;;;13.02;10.55;;;;;;;26.46;54.84;101091.47;5073219;28;19916;-80
2022/08/12 11:44:29;;;;;;;12.95;10.38;;;;;;;26.72;54.44;101127.94;5076653;28;20107;-82
2022/08/12 11:46:56;;;;;;;11.98;10.50;;;;;;;26.28;54.28;101048.75;5055330;28;20037;-80
2022/08/12 11:49:26;;;;;;;11.20;10.00;;;;;;;26.37;54.56;101064.72;5072421;28;20082;-80
2022/08/12 11:51:54;;;;;;;10.80;9.70;;;;;;;26.54;54.50;101091.41;5073730;28;20445;-82
2022/08/12 11:54:21;;;;;;;11.30;10.13;;;;;;;26.65;54.56;101107.44;5074473;28;20470;-81
2022/08/12 11:56:47;;;;;;;12.43;10.32;;;;;;;26.71;54.63;101107.38;5059123;28;20047;-81
2022/08/12 11:59:12;;;;;;;;;;;;;;;26.89;54.50;101138.53;5067876;28;20498;-83
2022/08/12 12:01:39;;;;;;;14.00;10.73;;;;;;;26.58;54.56;101082.47;5072799;28;20098;-81
2022/08/12 12:04:05;;;;;;;12.15;10.25;;;;;;;26.64;54.97;101093.16;5082652;28;20024;-81
2022/08/12 12:06:30;;;;;;;;;;;;;;;26.92;54.98;101133.16;5073231;28;20039;-81
2022/08/12 12:08:56;;;;;;;11.80;10.10;;;;;;;26.70;54.87;101095.78;5073356;28;20358;-80
2022/08/12 12:11:21;;;;;;;;;;;;;;;26.90;54.47;101130.50;5072635;28;20032;-81
2022/08/12 12:13:54;;;;;;;12.40;10.05;;;;;;;26.66;54.59;101096.72;5074075;28;19976;-80
2022/08/12 12:16:20;;;;;;;12.13;9.95;;;;;;;26.85;53.99;101129.63;5073362;28;20070;-81
2022/08/12 12:18:45;;;;;;;;;;;;;;;26.88;53.62;101120.66;5071238;28;20071;-80
2022/08/12 12:21:11;;;;;;;11.57;10.02;;;;;;;26.89;53.86;101114.41;5075643;28;19932;-80
2022/08/12 12:23:36;;;;;;;;;;;;;;;26.90;53.97;101121.53;5073504;28;20028;-81
2022/08/12 12:26:03;;;;;;;11.93;9.90;;;;;;;26.79;53.84;101117.16;5073289;28;19917;-80
2022/08/12 12:28:30;;;;;;;10.75;9.65;;;;;;;26.91;53.67;101117.97;5071506;28;20055;-81
2022/08/12 12:30:55;;;;;;;11.13;9.77;;;;;;;26.88;53.68;101115.31;5054875;28;20036;-81
2022/08/12 12:33:21;;;;;;;;;;;;;;;26.84;53.81;101117.16;5078517;28;20099;-80
2022/08/12 12:35:50;;;;;;;11.55;10.13;;;;;;;26.76;53.90;101090.41;5071153;28;19916;-80
2022/08/12 12:38:15;;;;;;;11.10;9.95;;;;;;;26.80;53.57;101100.19;5071468;28;20024;-81
2022/08/12 12:40:42;;;;;;;;;;;;;;;26.92;53.96;101115.25;5073079;28;20486;-81
2022/08/12 12:43:13;;;;;;;11.02;9.90;;;;;;;26.78;53.58;101093.94;5071811;28;19912;-80
2022/08/12 12:45:40;;;;;;;12.18;9.88;;;;;;;26.73;54.20;101076.13;5071172;28;20389;-80
2022/08/12 12:48:11;;;;;;;11.98;10.43;;;;;;;26.74;53.68;101080.59;5072387;28;20017;-81
2022/08/12 12:50:37;;;;;;;11.05;9.85;;;;;;;26.92;53.79;101111.69;5072134;28;20090;-79
2022/08/12 12:53:04;;;;;;;11.40;9.63;;;;;;;26.90;53.55;101109.06;5074178;28;20028;-81
2022/08/12 12:55:34;;;;;;;11.75;9.98;;;;;;;26.89;53.96;101101.91;5072343;28;20024;-80
2022/08/12 12:58:04;;;;;;;12.13;10.63;;;;;;;26.89;53.86;101099.22;5068727;28;20478;-82
2022/08/12 13:00:31;;;;;;;12.18;10.50;;;;;;;26.92;54.05;101099.19;5069232;28;20032;-82
2022/08/12 13:02:58;;;;;;;11.57;9.82;;;;;;;27.00;54.00;101107.16;5072095;28;20070;-82
2022/08/12 13:05:31;;;;;;;13.00;9.85;;;;;;;27.04;53.45;101103.56;5072553;28;20052;-82
2022/08/12 13:08:00;;;;;;;11.23;10.02;;;;;;;26.98;53.61;101103.63;5059718;28;20035;-81
2022/08/12 13:10:28;;;;;;;12.45;10.25;;;;;;;26.96;53.40;101103.63;5071781;28;20059;-81
2022/08/12 13:12:54;;;;;;;11.48;10.27;;;;;;;26.90;53.70;101089.38;5071876;28;20012;-82
2022/08/12 13:15:20;;;;;;;12.35;10.65;;;;;;;26.91;54.10;101102.78;5070131;28;20505;-82
2022/08/12 13:18:03;;;;;;;11.18;9.77;;;;;;;26.73;54.33;101057.38;5073223;28;20035;-83
2022/08/12 13:20:30;;;;;;;11.57;9.95;;;;;;;26.96;54.15;101097.38;5071840;28;20108;-82
2022/08/12 13:22:58;;;;;;;12.30;10.27;;;;;;;26.96;54.17;101108.09;5070937;28;20017;-82
2022/08/12 13:25:27;;;;;;;10.70;9.60;;;;;;;26.94;54.34;101101.84;5070972;28;20021;-82
2022/08/12 13:27:53;;;;;;;11.18;9.98;;;;;;;26.94;54.32;101101.84;5067439;28;20505;-82
2022/08/12 13:30:20;;;;;;;11.52;10.20;;;;;;;26.91;54.33;101102.78;5071246;28;20032;-82
2022/08/12 13:33:00;;;;;;;11.52;10.32;;;;;;;26.79;54.56;101078.75;5070695;28;20040;-81
2022/08/12 13:35:32;;;;;;;12.40;10.90;;;;;;;26.92;54.41;101085.78;5077743;28;20574;-83
2022/08/12 13:37:58;;;;;;;13.90;10.40;;;;;;;26.94;55.25;101094.69;5067234;28;20021;-81
2022/08/12 13:40:25;;;;;;;;;;;;;;;26.97;54.69;101097.38;5071645;28;20105;-81
2022/08/12 13:42:59;;;;;;;11.95;10.40;;;;;;;26.83;54.70;101069.78;5074446;28;19935;-80
2022/08/12 13:45:26;;;;;;;12.73;10.25;;;;;;;26.85;54.62;101077.81;5081563;28;20464;-81
2022/08/12 13:47:59;;;;;;;11.82;10.63;;;;;;;26.77;54.31;101068.03;5058360;28;20405;-82
2022/08/12 13:50:31;;;;;;;12.35;10.55;;;;;;;26.92;54.65;101092.94;5070463;28;20020;-81
2022/08/12 13:52:59;;;;;;;11.73;10.52;;;;;;;26.99;54.56;101095.56;5080158;28;20115;-82
2022/08/12 13:55:26;;;;;;;17.98;11.55;;;;;;;26.88;56.95;101080.47;5069301;28;20051;-83
2022/08/12 13:57:52;;;;;;;15.27;11.20;;;;;;;26.97;55.96;101105.41;5073329;28;20024;-82
2022/08/12 14:00:19;;;;;;;15.80;11.05;;;;;;;26.95;55.25;101091.13;5067671;28;20025;-83
2022/08/12 14:02:44;;;;;;;13.90;10.55;;;;;;;27.05;54.70;101093.72;5067186;28;20025;-83
2022/08/12 14:05:10;;;;;;;;;;;;;;;27.03;54.89;101093.75;5078735;28;20098;-83